| Date | Time | Temp. (oF) | Dew Point (oF) | Rel. Hum. (%) | Press. (in.) | Wind Dir. | Wind Speed (mph) | Hourly Rainfall (in.) |
|
|---|---|---|---|---|---|---|---|---|---|
| 1 | 10/21 | 00:00 | 55 | 52 | 90 | 29.94 | SSW | 6 | 0.00 |
| 2 | 10/20 | 23:00 | 53 | 51 | 93 | 29.95 | SSW | 2 | 0.00 |
| 3 | 10/20 | 22:00 | 52 | 49 | 91 | 29.98 | SSE | 1 | 0.00 |
| 4 | 10/20 | 21:00 | 53 | 48 | 86 | 30.02 | SSE | 3 | 0.00 |
| 5 | 10/20 | 20:00 | 54 | 48 | 81 | 30.04 | SSW | 4 | 0.00 |
| 6 | 10/20 | 19:00 | 56 | 48 | 76 | 30.04 | S | 2 | 0.00 |
| 7 | 10/20 | 18:00 | 60 | 48 | 65 | 30.05 | SSE | 4 | 0.00 |
| 8 | 10/20 | 17:00 | 63 | 47 | 58 | 30.05 | SSW | 6 | 0.00 |
| 9 | 10/20 | 16:00 | 63 | 47 | 57 | 30.07 | S | 9 | 0.00 |
| 10 | 10/20 | 15:00 | 62 | 47 | 59 | 30.09 | S | 5 | 0.00 |
| 11 | 10/20 | 14:00 | 59 | 45 | 61 | 30.15 | SSE | 7 | 0.00 |
| 12 | 10/20 | 13:00 | 57 | 44 | 63 | 30.20 | SSW | 6 | 0.00 |
| 13 | 10/20 | 12:00 | 54 | 44 | 71 | 30.24 | S | 2 | 0.00 |
| 14 | 10/20 | 11:00 | 50 | 46 | 88 | 30.26 | SE | 4 | 0.00 |
| 15 | 10/20 | 10:00 | 43 | 42 | 100 | 30.28 | NNE | 3 | 0.00 |
| 16 | 10/20 | 09:00 | 38 | 37 | 100 | 30.25 | SE | 0 | 0.00 |
| 17 | 10/20 | 08:00 | 35 | 35 | 100 | 30.26 | ESE | 0 | 0.00 |
| 18 | 10/20 | 07:00 | 35 | 35 | 100 | 30.25 | ESE | 0 | 0.00 |
| 19 | 10/20 | 06:00 | 35 | 35 | 100 | 30.23 | SE | 0 | 0.00 |
| 20 | 10/20 | 05:00 | 36 | 35 | 98 | 30.22 | SE | 2 | 0.00 |
| 21 | 10/20 | 04:00 | 37 | 36 | 98 | 30.21 | N | 0 | 0.00 |
| 22 | 10/20 | 03:00 | 39 | 38 | 97 | 30.21 | NNW | 0 | 0.00 |
| 23 | 10/20 | 02:00 | 40 | 38 | 96 | 30.20 | NNE | 0 | 0.00 |
| 24 | 10/20 | 01:00 | 41 | 39 | 95 | 30.20 | NNE | 0 | 0.00 |